Time;durP1;ratioP1;P1;durP2;ratioP2;P2;SDS_P1;SDS_P2;PMS_P1;PMS_P2;Temp;Humidity;BMP_temperature;BMP_pressure;BME280_temperature;BME280_humidity;BME280_pressure;Samples;Min_cycle;Max_cycle;Signal;HPM_P1;HPM_P2
2021/07/15 00:00:52;;;;;;;16.27;12.27;;;;;;;20.91;72.70;98907.78;5035428;28;20088;-70
2021/07/15 00:03:20;;;;;;;15.57;12.25;;;;;;;20.85;73.24;98899.88;5036147;28;20045;-71
2021/07/15 00:05:47;;;;;;;30.63;21.90;;;;;;;20.81;75.48;98901.59;5054164;28;20498;-71
2021/07/15 00:08:16;;;;;;;27.02;20.05;;;;;;;20.76;76.00;98903.66;5053725;28;20398;-70
2021/07/15 00:10:50;;;;;;;26.67;21.38;;;;;;;20.70;76.76;98896.84;5052572;28;20044;-70
2021/07/15 00:13:16;;;;;;;31.08;21.95;;;;;;;20.68;77.65;98899.06;5052737;28;20045;-71
2021/07/15 00:15:45;;;;;;;26.95;21.35;;;;;;;20.61;77.47;98894.94;5053851;28;20057;-70
2021/07/15 00:18:12;;;;;;;30.42;21.33;;;;;;;20.64;78.10;98893.50;5068940;28;20091;-71
2021/07/15 00:20:44;;;;;;;24.92;18.30;;;;;;;20.68;77.69;98899.88;5052401;28;20051;-72
2021/07/15 00:23:11;;;;;;;26.88;18.45;;;;;;;20.66;77.42;98895.91;5068982;28;20033;-70
2021/07/15 00:25:38;;;;;;;28.38;17.75;;;;;;;20.61;77.58;98888.75;5053378;28;20235;-71
2021/07/15 00:28:04;;;;;;;22.95;16.52;;;;;;;20.59;77.71;98891.78;5035547;28;20133;-70
2021/07/15 00:30:30;;;;;;;25.50;16.83;;;;;;;20.59;77.96;98882.91;5052143;28;20429;-70
2021/07/15 00:32:56;;;;;;;27.00;16.98;;;;;;;20.62;77.92;98876.91;5040361;28;20049;-70
2021/07/15 00:35:22;;;;;;;23.02;17.95;;;;;;;20.63;77.57;98873.88;5031910;28;20438;-70
2021/07/15 00:37:48;;;;;;;23.05;18.27;;;;;;;20.57;78.14;98877.06;5032024;28;20045;-70
2021/07/15 00:40:15;;;;;;;28.38;18.23;;;;;;;20.57;78.23;98885.13;5032365;28;20095;-69
2021/07/15 00:42:43;;;;;;;23.30;17.58;;;;;;;20.52;78.54;98875.28;5039015;28;20059;-69
2021/07/15 00:45:11;;;;;;;23.35;17.27;;;;;;;20.52;78.23;98879.84;5068665;28;20045;-69
2021/07/15 00:47:37;;;;;;;27.13;18.70;;;;;;;20.47;78.94;98872.75;5053036;28;20120;-70
2021/07/15 00:50:05;;;;;;;25.70;18.00;;;;;;;20.45;79.11;98882.22;5053166;28;20041;-70
2021/07/15 00:52:32;;;;;;;23.80;16.63;;;;;;;20.47;78.75;98877.31;5051606;28;20361;-69
2021/07/15 00:54:58;;;;;;;23.85;16.75;;;;;;;20.48;78.69;98878.91;5051395;28;20072;-71
2021/07/15 00:57:24;;;;;;;22.73;17.65;;;;;;;20.52;78.28;98877.16;5035145;28;20056;-71
2021/07/15 00:59:51;;;;;;;23.10;16.35;;;;;;;20.50;78.52;98876.69;5051575;28;20079;-70
2021/07/15 01:02:18;;;;;;;23.33;17.52;;;;;;;20.42;79.32;98878.28;5051807;28;20115;-70
2021/07/15 01:04:44;;;;;;;19.58;15.45;;;;;;;20.36;79.67;98893.78;5051222;28;20072;-70
2021/07/15 01:07:10;;;;;;;21.63;16.77;;;;;;;20.30;79.69;98881.56;5035213;28;20036;-70
2021/07/15 01:09:36;;;;;;;23.85;16.70;;;;;;;20.20;80.52;98877.25;5047141;28;20068;-70
2021/07/15 01:12:38;;;;;;;20.52;16.50;;;;;;;20.14;80.86;98897.34;5031451;28;20037;-70
2021/07/15 01:15:08;;;;;;;19.98;16.17;;;;;;;20.00;81.83;98887.81;5049109;28;20048;-70
2021/07/15 01:17:59;;;;;;;22.15;17.60;;;;;;;19.88;82.67;98878.47;5034820;28;20091;-70
2021/07/15 01:20:52;;;;;;;21.50;16.55;;;;;;;19.82;82.31;98876.97;5052032;28;20076;-72
2021/07/15 01:23:54;;;;;;;24.55;16.85;;;;;;;19.75;82.32;98868.59;5052520;28;20075;-70
2021/07/15 01:26:53;;;;;;;23.70;16.88;;;;;;;19.72;83.22;98864.63;5067882;28;20049;-70
2021/07/15 01:29:31;;;;;;;27.52;17.90;;;;;;;19.76;83.43;98861.31;5030122;28;20041;-70
2021/07/15 01:32:01;;;;;;;25.25;17.67;;;;;;;19.76;83.43;98853.25;5051126;28;20136;-71
2021/07/15 01:34:27;;;;;;;23.27;17.70;;;;;;;19.86;83.00;98861.84;5051732;28;20068;-70
2021/07/15 01:36:55;;;;;;;22.23;16.95;;;;;;;20.03;82.45;98869.16;5034624;28;20414;-71
2021/07/15 01:39:28;;;;;;;23.48;18.00;;;;;;;20.12;82.37;98861.13;5047373;28;20132;-69
2021/07/15 01:42:02;;;;;;;28.75;18.75;;;;;;;20.25;82.27;98873.66;5032842;28;20235;-71
2021/07/15 01:44:30;;;;;;;32.63;19.25;;;;;;;20.46;81.46;98871.13;5004654;28;20049;-69
2021/07/15 01:46:56;;;;;;;32.88;18.67;;;;;;;20.67;80.53;98871.34;5018199;28;20183;-70
2021/07/15 01:49:23;;;;;;;25.30;17.85;;;;;;;20.87;79.95;98865.31;5067089;28;20052;-70
2021/07/15 01:51:50;;;;;;;27.83;17.13;;;;;;;21.10;78.82;98873.22;5067227;28;20044;-70
2021/07/15 01:54:17;;;;;;;27.27;17.13;;;;;;;21.30;77.90;98877.94;5033712;28;20158;-69
2021/07/15 01:56:42;;;;;;;23.55;16.55;;;;;;;21.50;76.88;98873.81;5050865;28;20049;-70
2021/07/15 01:59:12;;;;;;;33.47;17.15;;;;;;;21.73;76.43;98866.25;5016970;28;20536;-70
2021/07/15 02:01:39;;;;;;;21.38;16.52;;;;;;;21.97;75.35;98872.97;5050823;28;20127;-69
2021/07/15 02:04:06;;;;;;;27.35;18.73;;;;;;;22.25;73.98;98876.03;5034019;28;20043;-70
2021/07/15 02:06:33;;;;;;;24.98;17.52;;;;;;;22.51;72.58;98878.56;5050310;28;20041;-70
2021/07/15 02:09:01;;;;;;;22.92;16.95;;;;;;;22.70;71.94;98871.91;5034152;28;20052;-69
2021/07/15 02:11:35;;;;;;;25.17;17.08;;;;;;;22.79;70.83;98867.22;5050164;28;20520;-69
2021/07/15 02:14:04;;;;;;;20.75;16.50;;;;;;;23.09;69.83;98865.25;5034876;28;20043;-71
2021/07/15 02:16:31;;;;;;;22.33;17.63;;;;;;;23.36;68.54;98863.84;5030095;28;20045;-69
2021/07/15 02:18:58;;;;;;;25.75;17.73;;;;;;;23.56;67.86;98864.91;5030105;28;20136;-70
2021/07/15 02:21:24;;;;;;;21.75;17.42;;;;;;;23.59;67.01;98866.94;5027211;28;20087;-69
2021/07/15 02:23:50;;;;;;;21.30;17.40;;;;;;;23.47;67.35;98873.09;5034091;28;20063;-70
2021/07/15 02:26:16;;;;;;;20.40;16.85;;;;;;;23.68;66.42;98880.31;5046441;28;20558;-70
2021/07/15 02:28:42;;;;;;;21.58;17.60;;;;;;;23.86;65.58;98859.31;5030137;28;20037;-70
2021/07/15 02:31:16;;;;;;;22.10;17.75;;;;;;;23.96;65.09;98869.66;5022157;28;20383;-70
2021/07/15 02:33:53;;;;;;;20.98;16.85;;;;;;;23.67;66.19;98863.31;5050344;28;20075;-70
2021/07/15 02:36:20;;;;;;;21.15;16.75;;;;;;;23.88;65.85;98876.75;5029860;28;20048;-70
2021/07/15 02:38:47;;;;;;;18.38;15.77;;;;;;;24.24;64.70;98867.84;5013729;28;20042;-70
2021/07/15 02:41:13;;;;;;;23.50;16.20;;;;;;;24.63;63.62;98870.94;5036283;28;20140;-70
2021/07/15 02:43:38;;;;;;;20.23;17.20;;;;;;;24.91;62.55;98865.56;5051325;28;20135;-70
2021/07/15 02:46:04;;;;;;;21.77;16.90;;;;;;;25.06;62.06;98874.88;5049897;28;20561;-70
2021/07/15 02:48:30;;;;;;;23.20;17.73;;;;;;;24.99;62.02;98877.38;5049897;28;20040;-70
2021/07/15 02:50:56;;;;;;;19.35;16.92;;;;;;;25.03;61.85;98870.13;5016389;28;20056;-68
2021/07/15 02:53:22;;;;;;;21.70;17.80;;;;;;;25.36;60.85;98878.00;5049705;28;20127;-70
2021/07/15 02:55:55;;;;;;;22.30;17.65;;;;;;;25.52;60.48;98871.81;5066139;28;20053;-70
2021/07/15 02:58:27;;;;;;;22.95;18.85;;;;;;;25.56;60.17;98875.38;5049994;28;20585;-69
2021/07/15 03:00:59;;;;;;;24.63;18.95;;;;;;;25.54;60.09;98869.53;5066428;28;20056;-69
2021/07/15 03:03:49;;;;;;;22.55;18.42;;;;;;;25.65;59.85;98865.16;5049940;28;20037;-68
2021/07/15 03:06:23;;;;;;;25.27;19.65;;;;;;;25.85;58.75;98870.69;5049301;28;20509;-70
2021/07/15 03:08:58;;;;;;;24.63;19.45;;;;;;;25.95;58.69;98875.59;5050144;28;20072;-70
2021/07/15 03:11:30;;;;;;;27.40;20.33;;;;;;;26.04;58.32;98873.47;5049544;28;20126;-70
2021/07/15 03:13:57;;;;;;;28.10;20.77;;;;;;;26.17;58.11;98877.66;5033131;28;20437;-69
2021/07/15 03:16:24;;;;;;;25.58;20.30;;;;;;;26.25;57.51;98878.59;5032913;28;20426;-70
2021/07/15 03:18:50;;;;;;;26.00;20.00;;;;;;;26.35;57.63;98879.97;5049465;28;20583;-71
2021/07/15 03:21:18;;;;;;;36.72;20.95;;;;;;;26.47;57.22;98877.94;5016659;28;20052;-71
2021/07/15 03:23:46;;;;;;;36.42;20.85;;;;;;;26.65;56.28;98874.81;5050549;28;20033;-70
2021/07/15 03:26:12;;;;;;;45.35;22.33;;;;;;;26.73;56.38;98876.53;5049518;28;20118;-71
2021/07/15 03:28:40;;;;;;;67.50;22.40;;;;;;;26.66;56.36;98865.53;5050496;28;20056;-71
2021/07/15 03:31:09;;;;;;;48.35;21.88;;;;;;;26.63;56.47;98861.59;5033501;28;20049;-70
2021/07/15 03:33:37;;;;;;;38.13;21.07;;;;;;;26.57;57.15;98864.97;5036541;28;20051;-70
2021/07/15 03:36:05;;;;;;;32.85;21.15;;;;;;;26.73;56.22;98873.81;5036935;28;20057;-70
2021/07/15 03:38:38;;;;;;;30.92;21.15;;;;;;;26.85;56.44;98876.41;5069698;28;20480;-70
2021/07/15 03:41:05;;;;;;;28.52;20.15;;;;;;;27.06;55.77;98875.22;5020395;28;20044;-68
2021/07/15 03:43:32;;;;;;;27.23;20.58;;;;;;;27.20;55.30;98877.47;5049902;28;20042;-69
2021/07/15 03:45:59;;;;;;;31.17;20.05;;;;;;;27.52;54.87;98883.50;5017049;28;20179;-71
2021/07/15 03:48:27;;;;;;;30.58;20.95;;;;;;;27.67;54.22;98885.28;5041986;28;20041;-70
2021/07/15 03:50:58;;;;;;;29.60;20.48;;;;;;;27.72;54.45;98887.72;5053382;28;20049;-70
2021/07/15 03:53:24;;;;;;;29.00;19.95;;;;;;;27.78;53.62;98880.03;5052734;28;20040;-70
2021/07/15 03:55:50;;;;;;;30.75;21.58;;;;;;;27.86;53.26;98887.22;5053015;28;20509;-72
2021/07/15 03:58:17;;;;;;;33.63;22.58;;;;;;;27.91;53.39;98889.59;5036104;28;20136;-69
2021/07/15 04:00:45;;;;;;;34.08;21.10;;;;;;;27.99;53.39;98885.84;5036051;28;20057;-70
2021/07/15 04:03:17;;;;;;;29.77;21.70;;;;;;;27.94;53.42;98888.88;5036262;28;20052;-70
2021/07/15 04:05:44;;;;;;;25.27;20.45;;;;;;;28.28;52.90;98892.50;5003699;28;20044;-71
2021/07/15 04:08:10;;;;;;;26.98;20.73;;;;;;;28.46;52.17;98886.53;5052535;28;20036;-70
2021/07/15 04:10:38;;;;;;;30.15;21.10;;;;;;;28.66;51.68;98882.53;5036068;28;20041;-70
2021/07/15 04:13:05;;;;;;;30.90;21.13;;;;;;;28.51;51.98;98878.81;5053995;28;20127;-69
2021/07/15 04:15:51;;;;;;;28.63;21.05;;;;;;;28.33;51.92;98877.78;5035829;28;20092;-70
2021/07/15 04:18:18;;;;;;;27.65;22.08;;;;;;;28.37;52.40;98877.81;5052587;28;20053;-70
2021/07/15 04:20:44;;;;;;;29.90;22.15;;;;;;;28.30;52.06;98876.56;5035753;28;20037;-69
2021/07/15 04:23:11;;;;;;;29.55;20.67;;;;;;;28.27;52.64;98877.31;5036012;28;20162;-71
2021/07/15 04:25:37;;;;;;;26.70;20.63;;;;;;;28.21;52.46;98870.59;5049057;28;20045;-71
2021/07/15 04:28:04;;;;;;;30.48;21.85;;;;;;;28.33;52.64;98880.50;5049033;28;20037;-70
2021/07/15 04:30:30;;;;;;;26.67;22.15;;;;;;;28.22;52.87;98874.91;5063964;28;20047;-70
2021/07/15 04:33:10;;;;;;;34.25;24.27;;;;;;;28.18;52.95;98870.53;5052483;28;20041;-71
2021/07/15 04:35:36;;;;;;;31.73;23.67;;;;;;;28.18;52.86;98863.16;5051808;28;20521;-70
2021/07/15 04:38:04;;;;;;;34.03;23.08;;;;;;;28.17;52.60;98860.78;5068728;28;20537;-70
2021/07/15 04:40:31;;;;;;;26.38;22.25;;;;;;;28.27;52.55;98854.72;5053219;28;20097;-70
2021/07/15 04:43:02;;;;;;;30.40;22.85;;;;;;;28.27;52.45;98860.97;5052372;28;20047;-73
2021/07/15 04:45:29;;;;;;;28.88;22.13;;;;;;;28.37;51.90;98856.00;5015610;28;20080;-71
2021/07/15 04:47:56;;;;;;;26.52;22.10;;;;;;;28.41;52.07;98865.00;5015756;28;20033;-70
2021/07/15 04:50:25;;;;;;;29.45;21.83;;;;;;;28.52;51.82;98865.97;5018625;28;20076;-68
2021/07/15 04:52:57;;;;;;;31.48;20.63;;;;;;;28.57;51.72;98857.47;5053173;28;20056;-71
2021/07/15 04:55:23;;;;;;;27.38;20.58;;;;;;;28.60;51.62;98853.22;5051740;28;20052;-70
2021/07/15 04:57:54;;;;;;;27.05;20.33;;;;;;;28.65;51.01;98855.59;5053433;28;20462;-71
2021/07/15 05:00:20;;;;;;;31.33;20.77;;;;;;;28.67;50.65;98861.47;5034628;28;20068;-67
2021/07/15 05:02:49;;;;;;;23.80;20.17;;;;;;;28.78;50.78;98867.06;5051587;28;20037;-70
2021/07/15 05:05:15;;;;;;;27.15;20.67;;;;;;;28.82;49.94;98859.72;5030885;28;20099;-71
2021/07/15 05:07:41;;;;;;;28.73;22.45;;;;;;;28.63;50.48;98861.44;5031758;28;20502;-70
2021/07/15 05:10:11;;;;;;;27.15;20.60;;;;;;;28.62;50.37;98861.81;5034225;28;20041;-76
2021/07/15 05:12:39;;;;;;;26.25;21.75;;;;;;;28.66;50.46;98857.97;5019008;28;20040;-70
2021/07/15 05:15:08;;;;;;;27.15;22.15;;;;;;;28.55;50.77;98867.97;5034608;28;20037;-71
2021/07/15 05:17:34;;;;;;;30.23;21.83;;;;;;;28.45;51.04;98857.72;5067926;28;20084;-70
2021/07/15 05:20:00;;;;;;;27.20;20.45;;;;;;;28.43;50.91;98855.34;5052588;28;20065;-68
2021/07/15 05:22:26;;;;;;;26.70;21.38;;;;;;;28.26;51.23;98848.47;5052055;28;20036;-69
2021/07/15 05:24:52;;;;;;;23.92;20.25;;;;;;;28.25;50.82;98854.31;5051411;28;20040;-69
2021/07/15 05:27:18;;;;;;;28.23;19.95;;;;;;;28.19;51.16;98850.31;5051616;28;20127;-71
2021/07/15 05:29:44;;;;;;;24.20;19.38;;;;;;;28.12;51.62;98853.75;5052580;28;20044;-69
2021/07/15 05:32:10;;;;;;;25.67;19.80;;;;;;;28.06;51.38;98841.56;5034346;28;20045;-69
2021/07/15 05:34:36;;;;;;;23.98;19.60;;;;;;;27.94;51.86;98842.56;5034445;28;20082;-67
2021/07/15 05:37:03;;;;;;;25.92;20.30;;;;;;;27.83;51.31;98847.09;5052473;28;20045;-69
2021/07/15 05:39:30;;;;;;;24.52;19.02;;;;;;;27.75;51.87;98843.44;5034565;28;20064;-69
2021/07/15 05:41:55;;;;;;;26.98;18.27;;;;;;;27.78;52.26;98844.63;5052475;28;20048;-69
2021/07/15 05:44:21;;;;;;;23.00;17.90;;;;;;;27.81;51.77;98850.16;5067357;28;20569;-69
2021/07/15 05:46:47;;;;;;;24.13;18.55;;;;;;;27.72;51.57;98843.38;5033511;28;20140;-70
2021/07/15 05:49:13;;;;;;;25.70;19.35;;;;;;;27.64;53.43;98843.25;5033148;28;20063;-71
2021/07/15 05:51:39;;;;;;;23.35;19.63;;;;;;;27.55;53.21;98839.22;5001877;28;20115;-72
2021/07/15 05:54:05;;;;;;;25.02;18.95;;;;;;;27.54;52.93;98829.47;5066243;28;20080;-70
2021/07/15 05:56:32;;;;;;;26.42;18.13;;;;;;;27.57;53.32;98826.03;5051514;28;20045;-70
2021/07/15 05:58:58;;;;;;;25.95;19.48;;;;;;;27.58;52.76;98836.53;5017050;28;20056;-70
2021/07/15 06:01:24;;;;;;;21.70;18.63;;;;;;;27.60;53.21;98836.97;5066933;28;20053;-69
2021/07/15 06:03:50;;;;;;;31.15;20.92;;;;;;;27.58;52.54;98835.75;5051186;28;20036;-70
2021/07/15 06:06:15;;;;;;;27.30;20.63;;;;;;;27.65;53.15;98827.72;5050489;28;20049;-69
2021/07/15 06:08:41;;;;;;;29.80;19.10;;;;;;;27.77;53.16;98832.19;5051333;28;20051;-69
2021/07/15 06:11:08;;;;;;;26.30;18.83;;;;;;;27.85;52.05;98833.88;5033884;28;20060;-70
2021/07/15 06:13:34;;;;;;;34.78;21.45;;;;;;;27.85;52.59;98842.03;5000610;28;20646;-70
2021/07/15 06:16:01;;;;;;;29.17;20.42;;;;;;;27.89;52.01;98836.66;5051638;28;20064;-69
2021/07/15 06:18:27;;;;;;;32.80;19.25;;;;;;;27.81;52.54;98814.75;5049426;28;20044;-69
2021/07/15 06:20:53;;;;;;;28.45;19.85;;;;;;;27.96;51.68;98825.88;5051803;28;20087;-71
2021/07/15 06:23:19;;;;;;;25.60;19.80;;;;;;;28.07;51.82;98829.53;5050739;28;20048;-67
2021/07/15 06:25:49;;;;;;;30.10;19.48;;;;;;;28.06;51.51;98827.94;5033342;28;20051;-72
2021/07/15 06:28:15;;;;;;;25.52;18.98;;;;;;;28.02;51.89;98827.91;5050468;28;20045;-69
2021/07/15 06:30:41;;;;;;;28.50;18.42;;;;;;;27.98;51.79;98823.56;5049783;28;20464;-71
2021/07/15 06:33:10;;;;;;;25.42;18.92;;;;;;;28.00;51.92;98827.50;5050573;28;20478;-70
2021/07/15 06:35:41;;;;;;;27.77;18.10;;;;;;;28.10;52.40;98831.53;5032763;28;20041;-69
2021/07/15 06:38:14;;;;;;;27.83;19.88;;;;;;;28.03;51.99;98820.50;5049575;28;20371;-73
2021/07/15 06:41:00;;;;;;;19.52;17.52;;;;;;;28.04;51.96;98806.53;5017782;28;20127;-73
2021/07/15 06:43:33;;;;;;;34.28;20.42;;;;;;;28.10;51.29;98823.34;5033391;28;20048;-71
2021/07/15 06:46:08;;;;;;;24.10;18.45;;;;;;;28.05;51.00;98818.22;5033429;28;20071;-74
2021/07/15 06:48:38;;;;;;;23.30;19.40;;;;;;;28.12;50.95;98820.25;5016915;28;20430;-75
2021/07/15 06:51:04;;;;;;;26.52;18.90;;;;;;;28.00;51.00;98797.53;5016565;28;20055;-71
2021/07/15 06:53:31;;;;;;;25.27;18.05;;;;;;;28.14;51.05;98818.72;5032446;28;20029;-69
2021/07/15 06:55:58;;;;;;;27.25;17.17;;;;;;;28.21;50.81;98813.38;5050535;28;20405;-69
2021/07/15 06:58:25;;;;;;;22.25;16.15;;;;;;;28.31;49.77;98815.44;5049273;28;20132;-73
2021/07/15 07:00:51;;;;;;;25.40;18.20;;;;;;;28.29;50.35;98806.84;5049124;28;20032;-74
2021/07/15 07:03:17;;;;;;;34.33;17.42;;;;;;;28.31;50.00;98815.44;5032313;28;20071;-68
2021/07/15 07:05:43;;;;;;;23.63;16.00;;;;;;;28.29;49.73;98809.56;5049432;28;20074;-72
2021/07/15 07:08:09;;;;;;;24.63;15.93;;;;;;;28.42;50.12;98810.16;5036938;28;20509;-72
2021/07/15 07:10:35;;;;;;;24.75;16.48;;;;;;;28.55;49.02;98821.63;5053813;28;20453;-75
2021/07/15 07:13:01;;;;;;;23.80;16.52;;;;;;;28.55;49.37;98813.44;5052660;28;20041;-73
2021/07/15 07:15:27;;;;;;;24.40;15.85;;;;;;;28.52;48.98;98812.22;5054182;28;20414;-74
2021/07/15 07:17:53;;;;;;;32.78;17.50;;;;;;;28.53;48.40;98805.63;5052869;28;20045;-74
2021/07/15 07:20:19;;;;;;;21.48;17.02;;;;;;;28.64;49.19;98815.88;5052684;28;20040;-73
2021/07/15 07:22:46;;;;;;;22.92;15.80;;;;;;;28.70;49.36;98809.72;5053916;28;20128;-73
2021/07/15 07:25:13;;;;;;;29.60;17.67;;;;;;;28.78;49.03;98805.13;5054306;28;20041;-73
2021/07/15 07:27:40;;;;;;;29.02;17.38;;;;;;;28.84;48.30;98811.81;5054668;28;20045;-73
2021/07/15 07:30:08;;;;;;;27.77;16.27;;;;;;;28.86;48.45;98812.22;5053586;28;20048;-74
2021/07/15 07:32:34;;;;;;;30.73;17.77;;;;;;;28.88;48.44;98809.91;5049442;28;20041;-74
2021/07/15 07:35:00;;;;;;;26.63;17.70;;;;;;;28.89;48.43;98799.78;5034105;28;20045;-73
2021/07/15 07:37:28;;;;;;;23.02;15.77;;;;;;;29.01;48.11;98802.25;5048140;28;20124;-74
2021/07/15 07:39:57;;;;;;;22.33;16.25;;;;;;;29.09;47.90;98803.94;5054050;28;20518;-77
2021/07/15 07:42:24;;;;;;;21.75;16.55;;;;;;;29.10;48.04;98791.84;5032327;28;20095;-74
2021/07/15 07:44:50;;;;;;;22.55;16.63;;;;;;;29.14;47.88;98789.91;5049797;28;20038;-77
2021/07/15 07:47:17;;;;;;;22.05;16.30;;;;;;;29.24;47.29;98796.66;5047342;28;20060;-74
2021/07/15 07:49:43;;;;;;;23.23;16.33;;;;;;;29.36;47.54;98793.63;5052268;28;20037;-73
2021/07/15 07:52:09;;;;;;;21.58;17.17;;;;;;;29.38;47.46;98793.25;5049201;28;20533;-72
2021/07/15 07:54:34;;;;;;;22.67;16.77;;;;;;;29.45;46.95;98787.06;5033330;28;20053;-73
2021/07/15 07:57:00;;;;;;;22.80;17.00;;;;;;;29.54;47.12;98780.13;5041559;28;20567;-72
2021/07/15 07:59:26;;;;;;;21.52;17.38;;;;;;;29.61;47.07;98787.56;5032187;28;20061;-72
2021/07/15 08:01:52;;;;;;;22.88;16.75;;;;;;;29.60;46.46;98789.53;5039744;28;20050;-71
2021/07/15 08:04:19;;;;;;;18.45;16.33;;;;;;;29.57;45.72;98781.31;5032465;28;20037;-71
2021/07/15 08:06:47;;;;;;;20.55;17.02;;;;;;;29.58;45.58;98780.91;5042076;28;20506;-74
2021/07/15 08:09:15;;;;;;;22.67;15.98;;;;;;;29.70;45.30;98788.03;5052362;28;20413;-74
2021/07/15 08:11:45;;;;;;;23.88;17.48;;;;;;;29.79;44.76;98780.28;5053573;28;20095;-73
2021/07/15 08:14:11;;;;;;;27.50;15.75;;;;;;;29.81;44.23;98785.41;5053075;28;20049;-74
2021/07/15 08:16:37;;;;;;;17.92;14.85;;;;;;;29.93;44.61;98787.03;5051449;28;20330;-73
2021/07/15 08:19:02;;;;;;;16.23;13.27;;;;;;;30.03;43.03;98781.63;5052002;28;20132;-74
2021/07/15 08:21:30;;;;;;;16.73;13.20;;;;;;;30.19;43.08;98792.25;5052893;28;20048;-74
2021/07/15 08:23:56;;;;;;;16.42;12.93;;;;;;;30.24;42.92;98786.44;5053642;28;20048;-74
2021/07/15 08:26:22;;;;;;;27.85;14.55;;;;;;;30.31;42.52;98781.00;5068513;28;20452;-75
2021/07/15 08:28:48;;;;;;;20.23;13.60;;;;;;;30.39;43.25;98776.34;5053403;28;20045;-73
2021/07/15 08:31:14;;;;;;;18.30;14.25;;;;;;;30.47;42.42;98777.94;5051601;28;20041;-73
2021/07/15 08:33:40;;;;;;;18.38;15.15;;;;;;;30.57;43.26;98778.34;5035290;28;20037;-73
2021/07/15 08:36:05;;;;;;;15.70;14.00;;;;;;;30.59;41.95;98782.28;5052966;28;20053;-74
2021/07/15 08:38:31;;;;;;;20.13;14.30;;;;;;;30.62;42.41;98780.69;5051610;28;20499;-73
2021/07/15 08:40:57;;;;;;;18.65;13.93;;;;;;;30.71;42.35;98779.19;5051657;28;20083;-74
2021/07/15 08:43:23;;;;;;;17.13;15.20;;;;;;;30.81;42.30;98772.19;5035039;28;20036;-73
2021/07/15 08:45:50;;;;;;;21.35;15.15;;;;;;;30.95;42.39;98774.19;5052551;28;20480;-72
2021/07/15 08:48:19;;;;;;;16.70;14.85;;;;;;;31.05;42.74;98772.63;5034676;28;20055;-75
2021/07/15 08:50:46;;;;;;;19.65;15.90;;;;;;;31.12;42.64;98764.41;5034644;28;20037;-75
2021/07/15 08:53:16;;;;;;;19.60;14.63;;;;;;;31.25;42.05;98764.81;5051869;28;20044;-73
2021/07/15 08:58:26;;;;;;;17.70;14.70;;;;;;;31.61;40.67;98768.31;5051293;28;20111;-76
2021/07/15 09:00:53;;;;;;;17.88;14.15;;;;;;;31.79;40.64;98765.53;5052373;28;20056;-75
2021/07/15 09:03:19;;;;;;;14.00;12.23;;;;;;;31.88;38.97;98761.22;5067418;28;20076;-75
2021/07/15 09:05:45;;;;;;;17.52;13.55;;;;;;;31.90;38.63;98755.38;5051329;28;20044;-75
2021/07/15 09:08:13;;;;;;;15.07;13.43;;;;;;;32.07;38.28;98753.75;5052737;28;20136;-75
2021/07/15 09:10:40;;;;;;;15.02;13.63;;;;;;;32.12;38.73;98748.66;5052439;28;20068;-75
2021/07/15 09:13:06;;;;;;;17.95;12.82;;;;;;;32.22;38.61;98741.56;5052516;28;20064;-76
2021/07/15 09:15:32;;;;;;;20.33;14.57;;;;;;;32.08;38.56;98736.13;5051201;28;20052;-76
2021/07/15 09:17:58;;;;;;;17.77;14.18;;;;;;;31.94;38.97;98733.44;5052244;28;20064;-76
2021/07/15 09:20:27;;;;;;;18.38;14.10;;;;;;;31.72;38.84;98732.69;5051552;28;20033;-75
2021/07/15 09:23:02;;;;;;;15.30;13.05;;;;;;;31.55;39.13;98731.56;5034517;28;20084;-75
2021/07/15 09:25:49;;;;;;;13.93;12.15;;;;;;;31.39;39.71;98727.28;5034761;28;20402;-75
2021/07/15 09:28:20;;;;;;;11.77;10.40;;;;;;;31.30;37.32;98726.88;5052607;28;20087;-76
2021/07/15 09:30:46;;;;;;;14.98;10.70;;;;;;;31.33;37.27;98714.34;5051739;28;20048;-73
2021/07/15 09:33:14;;;;;;;12.13;10.93;;;;;;;31.28;37.58;98706.53;5050853;28;20532;-77
2021/07/15 09:35:43;;;;;;;11.60;10.43;;;;;;;31.22;37.74;98703.41;5051808;28;20057;-75
2021/07/15 09:38:11;;;;;;;13.88;11.32;;;;;;;31.15;38.27;98695.97;5051017;28;20123;-76
2021/07/15 09:40:50;;;;;;;16.10;11.73;;;;;;;30.96;38.42;98696.38;5034158;28;20052;-74
2021/07/15 09:43:28;;;;;;;15.80;12.70;;;;;;;30.83;39.27;98682.31;5051315;28;20056;-73
2021/07/15 09:45:56;;;;;;;12.80;11.50;;;;;;;30.81;39.72;98679.16;5051695;28;20068;-75
2021/07/15 09:48:29;;;;;;;13.05;11.07;;;;;;;30.89;39.05;98682.69;5051941;28;20041;-75
2021/07/15 09:50:57;;;;;;;15.45;11.88;;;;;;;30.93;38.69;98686.22;5034370;28;20135;-75
2021/07/15 09:53:31;;;;;;;16.40;12.15;;;;;;;30.95;38.33;98684.66;5050465;28;20530;-73
2021/07/15 09:56:03;;;;;;;14.93;12.95;;;;;;;30.94;38.61;98687.75;5033941;28;20041;-72
2021/07/15 09:58:32;;;;;;;14.57;12.75;;;;;;;31.13;38.86;98672.91;5050411;28;20406;-71
2021/07/15 10:01:12;;;;;;;14.10;12.23;;;;;;;31.22;38.38;98667.81;5033942;28;20045;-71
2021/07/15 10:03:43;;;;;;;14.65;11.82;;;;;;;31.11;38.36;98669.78;5050568;28;20045;-71
2021/07/15 10:06:10;;;;;;;14.55;11.43;;;;;;;30.99;38.04;98671.72;5030411;28;20491;-73
2021/07/15 10:08:38;;;;;;;13.93;10.80;;;;;;;30.92;37.74;98669.00;5030634;28;20045;-72
2021/07/15 10:11:19;;;;;;;15.60;12.60;;;;;;;30.86;38.35;98665.09;5050308;28;20410;-73
2021/07/15 10:14:07;;;;;;;12.77;11.55;;;;;;;30.86;39.05;98662.38;5050305;28;20131;-74
2021/07/15 10:16:39;;;;;;;13.30;11.52;;;;;;;30.94;38.41;98671.34;5030069;28;20084;-73
2021/07/15 10:19:07;;;;;;;17.33;12.02;;;;;;;31.02;38.57;98666.66;5031612;28;20041;-73
2021/07/15 10:21:35;;;;;;;12.63;11.40;;;;;;;31.06;38.63;98664.69;5039162;28;20076;-74
2021/07/15 10:24:15;;;;;;;12.95;11.52;;;;;;;31.07;38.55;98669.78;5033148;28;20041;-73
2021/07/15 10:26:46;;;;;;;12.52;11.18;;;;;;;31.12;37.94;98665.84;5050889;28;20045;-72
2021/07/15 10:29:17;;;;;;;14.10;12.55;;;;;;;31.12;39.71;98663.91;5049695;28;20039;-73
2021/07/15 10:31:44;;;;;;;14.38;12.68;;;;;;;31.12;40.45;98663.13;5066195;28;20465;-73
2021/07/15 10:34:11;;;;;;;14.85;13.15;;;;;;;31.10;40.81;98669.00;5050689;28;20521;-73
2021/07/15 10:36:38;;;;;;;18.08;13.20;;;;;;;30.95;41.66;98684.66;5050255;28;20508;-73
2021/07/15 10:39:11;;;;;;;15.73;13.95;;;;;;;30.76;42.35;98683.03;5049437;28;20082;-72
2021/07/15 10:41:38;;;;;;;16.15;13.52;;;;;;;30.51;43.13;98690.44;5045867;28;20513;-73
2021/07/15 10:44:06;;;;;;;15.45;13.15;;;;;;;30.28;43.54;98693.50;5029144;28;20041;-71
2021/07/15 10:46:32;;;;;;;14.48;12.88;;;;;;;30.14;43.51;98702.41;5038169;28;20055;-72
2021/07/15 10:48:58;;;;;;;15.55;13.20;;;;;;;29.97;44.13;98720.28;5066157;28;20155;-74
2021/07/15 10:51:24;;;;;;;39.67;12.63;;;;;;;29.72;43.03;98757.63;5030706;28;20041;-72
2021/07/15 10:53:52;;;;;;;40.05;11.70;;;;;;;29.11;43.57;98759.88;5049144;28;20534;-73
2021/07/15 10:56:20;;;;;;;23.42;9.10;;;;;;;28.73;44.04;98770.78;5012444;28;20511;-73
2021/07/15 10:58:45;;;;;;;30.75;9.93;;;;;;;28.20;45.58;98765.47;5030723;28;20137;-73
2021/07/15 11:01:36;;;;;;;26.38;8.48;;;;;;;27.89;44.80;98774.81;5030421;28;20152;-72
2021/07/15 11:04:16;;;;;;;37.35;9.38;;;;;;;27.44;45.14;98786.53;5029445;28;20046;-73
2021/07/15 11:06:44;;;;;;;46.97;9.80;;;;;;;27.07;45.70;98785.13;5021836;28;20073;-73
2021/07/15 11:09:24;;;;;;;28.58;9.25;;;;;;;26.64;47.73;98800.63;5049397;28;20051;-70
2021/07/15 11:11:51;;;;;;;18.60;8.57;;;;;;;26.12;50.19;98820.09;5007539;28;20068;-69
2021/07/15 11:14:49;;;;;;;12.35;7.63;;;;;;;25.31;54.03;98843.00;5030250;28;20522;-77
2021/07/15 11:17:21;;;;;;;11.50;7.22;;;;;;;24.58;55.50;98827.84;5026331;28;20537;-70
2021/07/15 11:20:16;;;;;;;19.83;7.35;;;;;;;24.21;56.66;98832.53;5065983;28;20072;-68
2021/07/15 11:22:46;;;;;;;15.88;5.63;;;;;;;23.83;61.66;98839.13;5050146;28;20045;-73
2021/07/15 11:25:13;;;;;;;;;;;;;;;23.30;58.15;98816.50;5049177;28;20067;-72
2021/07/15 11:27:50;;;;;;;5.20;4.60;;;;;;;23.04;57.11;98803.28;5045696;28;19925;-72